sensor_id;sensor_type;location;lat;lon;timestamp;P1;durP1;ratioP1;P2;durP2;ratioP2
26191;SDS011;13935;55.672;37.764;2023-06-19T00:00:28;13.85;;;5.95;;
26191;SDS011;13935;55.672;37.764;2023-06-19T00:01:32;9.57;;;5.55;;
26191;SDS011;13935;55.672;37.764;2023-06-19T00:02:36;11.20;;;5.50;;
26191;SDS011;13935;55.672;37.764;2023-06-19T00:03:40;9.15;;;5.03;;
26191;SDS011;13935;55.672;37.764;2023-06-19T00:04:43;9.07;;;5.43;;
26191;SDS011;13935;55.672;37.764;2023-06-19T00:05:44;11.07;;;5.53;;
26191;SDS011;13935;55.672;37.764;2023-06-19T00:06:46;13.82;;;5.72;;
26191;SDS011;13935;55.672;37.764;2023-06-19T00:07:50;11.02;;;5.20;;
26191;SDS011;13935;55.672;37.764;2023-06-19T00:08:53;10.63;;;5.25;;
26191;SDS011;13935;55.672;37.764;2023-06-19T00:09:56;11.20;;;4.78;;
26191;SDS011;13935;55.672;37.764;2023-06-19T00:10:58;12.80;;;5.20;;
26191;SDS011;13935;55.672;37.764;2023-06-19T00:12:00;11.10;;;5.90;;
26191;SDS011;13935;55.672;37.764;2023-06-19T00:13:03;10.73;;;5.05;;
26191;SDS011;13935;55.672;37.764;2023-06-19T00:14:05;12.27;;;5.30;;
26191;SDS011;13935;55.672;37.764;2023-06-19T00:15:08;8.68;;;4.88;;
26191;SDS011;13935;55.672;37.764;2023-06-19T00:16:11;8.50;;;5.32;;
26191;SDS011;13935;55.672;37.764;2023-06-19T00:17:13;9.40;;;5.10;;
26191;SDS011;13935;55.672;37.764;2023-06-19T00:18:18;8.20;;;5.07;;
26191;SDS011;13935;55.672;37.764;2023-06-19T00:19:21;11.45;;;5.30;;
26191;SDS011;13935;55.672;37.764;2023-06-19T00:20:24;14.57;;;5.43;;
26191;SDS011;13935;55.672;37.764;2023-06-19T00:21:26;10.70;;;5.20;;
26191;SDS011;13935;55.672;37.764;2023-06-19T00:22:28;8.20;;;4.63;;
26191;SDS011;13935;55.672;37.764;2023-06-19T00:23:30;8.65;;;4.97;;
26191;SDS011;13935;55.672;37.764;2023-06-19T00:24:32;10.20;;;4.85;;
26191;SDS011;13935;55.672;37.764;2023-06-19T00:25:35;11.68;;;4.93;;
26191;SDS011;13935;55.672;37.764;2023-06-19T00:26:37;9.20;;;4.80;;
26191;SDS011;13935;55.672;37.764;2023-06-19T00:27:39;10.50;;;5.07;;
26191;SDS011;13935;55.672;37.764;2023-06-19T00:28:41;11.30;;;5.22;;
26191;SDS011;13935;55.672;37.764;2023-06-19T00:29:46;12.18;;;5.28;;
26191;SDS011;13935;55.672;37.764;2023-06-19T00:30:48;11.32;;;5.05;;
26191;SDS011;13935;55.672;37.764;2023-06-19T00:31:50;9.07;;;5.30;;
26191;SDS011;13935;55.672;37.764;2023-06-19T00:32:51;12.68;;;5.00;;
26191;SDS011;13935;55.672;37.764;2023-06-19T00:33:54;10.80;;;5.47;;
26191;SDS011;13935;55.672;37.764;2023-06-19T00:34:59;10.55;;;4.78;;
26191;SDS011;13935;55.672;37.764;2023-06-19T00:36:02;7.68;;;4.80;;
26191;SDS011;13935;55.672;37.764;2023-06-19T00:37:12;8.65;;;4.88;;
26191;SDS011;13935;55.672;37.764;2023-06-19T00:38:14;9.00;;;4.55;;
26191;SDS011;13935;55.672;37.764;2023-06-19T00:39:16;8.10;;;4.90;;
26191;SDS011;13935;55.672;37.764;2023-06-19T00:40:28;8.43;;;4.50;;
26191;SDS011;13935;55.672;37.764;2023-06-19T00:41:32;10.15;;;4.22;;
26191;SDS011;13935;55.672;37.764;2023-06-19T00:42:36;7.38;;;4.30;;
26191;SDS011;13935;55.672;37.764;2023-06-19T00:43:39;11.27;;;5.05;;
26191;SDS011;13935;55.672;37.764;2023-06-19T00:44:41;12.18;;;4.95;;
26191;SDS011;13935;55.672;37.764;2023-06-19T00:45:44;9.68;;;5.10;;
26191;SDS011;13935;55.672;37.764;2023-06-19T00:46:46;9.65;;;4.88;;
26191;SDS011;13935;55.672;37.764;2023-06-19T00:47:48;10.38;;;5.00;;
26191;SDS011;13935;55.672;37.764;2023-06-19T00:48:51;8.43;;;4.53;;
26191;SDS011;13935;55.672;37.764;2023-06-19T00:49:54;7.70;;;4.65;;
26191;SDS011;13935;55.672;37.764;2023-06-19T00:50:56;10.23;;;4.57;;
26191;SDS011;13935;55.672;37.764;2023-06-19T00:51:59;8.82;;;5.03;;
26191;SDS011;13935;55.672;37.764;2023-06-19T00:53:01;9.70;;;4.75;;
26191;SDS011;13935;55.672;37.764;2023-06-19T00:54:05;11.40;;;4.72;;
26191;SDS011;13935;55.672;37.764;2023-06-19T00:55:10;8.48;;;4.53;;
26191;SDS011;13935;55.672;37.764;2023-06-19T00:56:12;9.07;;;4.28;;
26191;SDS011;13935;55.672;37.764;2023-06-19T00:57:16;7.68;;;4.47;;
26191;SDS011;13935;55.672;37.764;2023-06-19T00:58:19;10.07;;;4.72;;
26191;SDS011;13935;55.672;37.764;2023-06-19T00:59:21;9.82;;;4.57;;
26191;SDS011;13935;55.672;37.764;2023-06-19T01:00:24;11.57;;;4.70;;
26191;SDS011;13935;55.672;37.764;2023-06-19T01:01:26;9.57;;;4.90;;
26191;SDS011;13935;55.672;37.764;2023-06-19T01:02:30;8.43;;;4.32;;
26191;SDS011;13935;55.672;37.764;2023-06-19T01:03:32;7.53;;;4.53;;
26191;SDS011;13935;55.672;37.764;2023-06-19T01:04:34;11.93;;;4.95;;
26191;SDS011;13935;55.672;37.764;2023-06-19T01:05:37;9.65;;;4.85;;
26191;SDS011;13935;55.672;37.764;2023-06-19T01:08:16;10.52;;;4.38;;
26191;SDS011;13935;55.672;37.764;2023-06-19T01:09:25;10.00;;;4.15;;
26191;SDS011;13935;55.672;37.764;2023-06-19T01:10:43;12.70;;;4.47;;
26191;SDS011;13935;55.672;37.764;2023-06-19T01:11:55;9.18;;;4.85;;
26191;SDS011;13935;55.672;37.764;2023-06-19T01:13:10;7.28;;;4.32;;
26191;SDS011;13935;55.672;37.764;2023-06-19T01:14:18;8.68;;;4.40;;
26191;SDS011;13935;55.672;37.764;2023-06-19T01:15:24;11.27;;;4.97;;
26191;SDS011;13935;55.672;37.764;2023-06-19T01:16:27;8.65;;;4.50;;
26191;SDS011;13935;55.672;37.764;2023-06-19T01:17:31;10.13;;;4.28;;
26191;SDS011;13935;55.672;37.764;2023-06-19T01:18:34;11.85;;;4.53;;
26191;SDS011;13935;55.672;37.764;2023-06-19T01:19:37;11.32;;;4.68;;
26191;SDS011;13935;55.672;37.764;2023-06-19T01:20:39;7.72;;;4.68;;
26191;SDS011;13935;55.672;37.764;2023-06-19T01:21:41;10.35;;;4.03;;
26191;SDS011;13935;55.672;37.764;2023-06-19T01:22:44;8.27;;;4.28;;
26191;SDS011;13935;55.672;37.764;2023-06-19T01:23:46;8.10;;;4.50;;
26191;SDS011;13935;55.672;37.764;2023-06-19T01:24:50;8.07;;;4.30;;
26191;SDS011;13935;55.672;37.764;2023-06-19T01:25:52;10.13;;;4.60;;
26191;SDS011;13935;55.672;37.764;2023-06-19T01:26:54;11.43;;;4.50;;
26191;SDS011;13935;55.672;37.764;2023-06-19T01:27:57;10.77;;;4.13;;
26191;SDS011;13935;55.672;37.764;2023-06-19T01:29:00;8.45;;;4.38;;
26191;SDS011;13935;55.672;37.764;2023-06-19T01:30:02;7.43;;;3.95;;
26191;SDS011;13935;55.672;37.764;2023-06-19T01:31:08;11.68;;;4.32;;
26191;SDS011;13935;55.672;37.764;2023-06-19T01:32:15;10.18;;;4.20;;
26191;SDS011;13935;55.672;37.764;2023-06-19T01:33:23;8.98;;;4.40;;
26191;SDS011;13935;55.672;37.764;2023-06-19T01:34:28;8.70;;;4.72;;
26191;SDS011;13935;55.672;37.764;2023-06-19T01:35:34;8.05;;;4.53;;
26191;SDS011;13935;55.672;37.764;2023-06-19T01:36:38;9.02;;;4.47;;
26191;SDS011;13935;55.672;37.764;2023-06-19T01:37:41;8.02;;;4.32;;
26191;SDS011;13935;55.672;37.764;2023-06-19T01:38:43;9.77;;;4.60;;
26191;SDS011;13935;55.672;37.764;2023-06-19T01:39:47;6.63;;;4.03;;
26191;SDS011;13935;55.672;37.764;2023-06-19T01:40:50;6.35;;;3.95;;
26191;SDS011;13935;55.672;37.764;2023-06-19T01:41:57;7.65;;;4.18;;
26191;SDS011;13935;55.672;37.764;2023-06-19T01:43:00;9.20;;;4.35;;
26191;SDS011;13935;55.672;37.764;2023-06-19T01:44:03;7.25;;;4.35;;
26191;SDS011;13935;55.672;37.764;2023-06-19T01:45:07;8.68;;;4.25;;
26191;SDS011;13935;55.672;37.764;2023-06-19T01:46:10;7.72;;;4.03;;
26191;SDS011;13935;55.672;37.764;2023-06-19T01:47:12;9.15;;;4.28;;
26191;SDS011;13935;55.672;37.764;2023-06-19T01:48:16;9.70;;;4.20;;
26191;SDS011;13935;55.672;37.764;2023-06-19T01:49:18;9.38;;;4.10;;
26191;SDS011;13935;55.672;37.764;2023-06-19T01:50:21;8.85;;;4.18;;
26191;SDS011;13935;55.672;37.764;2023-06-19T01:51:25;8.60;;;4.60;;
26191;SDS011;13935;55.672;37.764;2023-06-19T01:52:27;10.60;;;5.20;;
26191;SDS011;13935;55.672;37.764;2023-06-19T01:53:30;8.05;;;4.40;;
26191;SDS011;13935;55.672;37.764;2023-06-19T01:54:33;8.15;;;4.25;;
26191;SDS011;13935;55.672;37.764;2023-06-19T01:55:35;7.93;;;4.30;;
26191;SDS011;13935;55.672;37.764;2023-06-19T01:56:37;8.10;;;4.22;;
26191;SDS011;13935;55.672;37.764;2023-06-19T01:57:39;9.13;;;4.40;;
26191;SDS011;13935;55.672;37.764;2023-06-19T01:58:42;9.13;;;4.20;;
26191;SDS011;13935;55.672;37.764;2023-06-19T01:59:44;8.73;;;4.30;;
26191;SDS011;13935;55.672;37.764;2023-06-19T02:00:48;7.55;;;4.60;;
26191;SDS011;13935;55.672;37.764;2023-06-19T02:01:51;7.88;;;4.40;;
26191;SDS011;13935;55.672;37.764;2023-06-19T02:02:53;7.53;;;4.28;;
26191;SDS011;13935;55.672;37.764;2023-06-19T02:03:55;8.57;;;4.28;;
26191;SDS011;13935;55.672;37.764;2023-06-19T02:04:57;7.07;;;3.90;;
26191;SDS011;13935;55.672;37.764;2023-06-19T02:05:59;11.30;;;4.40;;
26191;SDS011;13935;55.672;37.764;2023-06-19T02:07:02;10.30;;;4.43;;
26191;SDS011;13935;55.672;37.764;2023-06-19T02:08:04;6.47;;;4.13;;
26191;SDS011;13935;55.672;37.764;2023-06-19T02:09:10;11.45;;;4.70;;
26191;SDS011;13935;55.672;37.764;2023-06-19T02:10:12;8.90;;;4.22;;
26191;SDS011;13935;55.672;37.764;2023-06-19T02:11:14;9.25;;;4.15;;
26191;SDS011;13935;55.672;37.764;2023-06-19T02:12:16;7.20;;;4.20;;
26191;SDS011;13935;55.672;37.764;2023-06-19T02:13:19;11.23;;;4.38;;
26191;SDS011;13935;55.672;37.764;2023-06-19T02:14:21;10.13;;;4.07;;
26191;SDS011;13935;55.672;37.764;2023-06-19T02:15:24;10.30;;;4.53;;
26191;SDS011;13935;55.672;37.764;2023-06-19T02:16:26;11.90;;;4.22;;
26191;SDS011;13935;55.672;37.764;2023-06-19T02:17:29;8.25;;;4.40;;
26191;SDS011;13935;55.672;37.764;2023-06-19T02:18:31;10.43;;;4.53;;
26191;SDS011;13935;55.672;37.764;2023-06-19T02:19:34;10.52;;;4.35;;
26191;SDS011;13935;55.672;37.764;2023-06-19T02:20:37;11.35;;;4.03;;
26191;SDS011;13935;55.672;37.764;2023-06-19T02:21:40;8.27;;;4.32;;
26191;SDS011;13935;55.672;37.764;2023-06-19T02:22:42;8.63;;;3.95;;
26191;SDS011;13935;55.672;37.764;2023-06-19T02:23:44;6.70;;;4.25;;
26191;SDS011;13935;55.672;37.764;2023-06-19T02:24:46;7.05;;;3.95;;
26191;SDS011;13935;55.672;37.764;2023-06-19T02:25:48;8.15;;;4.05;;
26191;SDS011;13935;55.672;37.764;2023-06-19T02:26:52;9.05;;;4.05;;
26191;SDS011;13935;55.672;37.764;2023-06-19T02:27:53;12.38;;;4.57;;
26191;SDS011;13935;55.672;37.764;2023-06-19T02:28:56;10.70;;;4.53;;
26191;SDS011;13935;55.672;37.764;2023-06-19T02:29:57;8.15;;;4.25;;
26191;SDS011;13935;55.672;37.764;2023-06-19T02:31:00;9.82;;;4.72;;
26191;SDS011;13935;55.672;37.764;2023-06-19T02:32:02;8.05;;;4.50;;
26191;SDS011;13935;55.672;37.764;2023-06-19T02:33:05;7.70;;;4.38;;
26191;SDS011;13935;55.672;37.764;2023-06-19T02:34:07;10.68;;;4.57;;
26191;SDS011;13935;55.672;37.764;2023-06-19T02:35:11;14.45;;;5.07;;
26191;SDS011;13935;55.672;37.764;2023-06-19T02:36:13;9.98;;;4.25;;
26191;SDS011;13935;55.672;37.764;2023-06-19T02:37:21;9.25;;;4.18;;
26191;SDS011;13935;55.672;37.764;2023-06-19T02:38:23;11.48;;;4.10;;
26191;SDS011;13935;55.672;37.764;2023-06-19T02:39:25;10.05;;;4.90;;
26191;SDS011;13935;55.672;37.764;2023-06-19T02:40:28;9.70;;;4.40;;
26191;SDS011;13935;55.672;37.764;2023-06-19T02:41:30;8.75;;;4.53;;
26191;SDS011;13935;55.672;37.764;2023-06-19T02:42:32;9.27;;;5.10;;
26191;SDS011;13935;55.672;37.764;2023-06-19T02:43:35;7.22;;;4.20;;
26191;SDS011;13935;55.672;37.764;2023-06-19T02:44:40;9.88;;;4.50;;
26191;SDS011;13935;55.672;37.764;2023-06-19T02:45:45;7.88;;;4.30;;
26191;SDS011;13935;55.672;37.764;2023-06-19T02:46:47;7.82;;;4.40;;
26191;SDS011;13935;55.672;37.764;2023-06-19T02:47:50;10.98;;;4.50;;
26191;SDS011;13935;55.672;37.764;2023-06-19T02:48:53;9.75;;;4.60;;
26191;SDS011;13935;55.672;37.764;2023-06-19T02:49:59;9.57;;;4.97;;
26191;SDS011;13935;55.672;37.764;2023-06-19T02:51:03;7.47;;;4.50;;
26191;SDS011;13935;55.672;37.764;2023-06-19T02:52:06;12.00;;;4.95;;
26191;SDS011;13935;55.672;37.764;2023-06-19T02:53:08;11.02;;;4.55;;
26191;SDS011;13935;55.672;37.764;2023-06-19T02:54:10;9.80;;;4.63;;
26191;SDS011;13935;55.672;37.764;2023-06-19T02:55:13;10.20;;;4.75;;
26191;SDS011;13935;55.672;37.764;2023-06-19T02:56:15;7.80;;;4.45;;
26191;SDS011;13935;55.672;37.764;2023-06-19T02:57:18;8.32;;;4.28;;
26191;SDS011;13935;55.672;37.764;2023-06-19T02:58:20;9.27;;;4.68;;
26191;SDS011;13935;55.672;37.764;2023-06-19T02:59:22;9.32;;;4.15;;
26191;SDS011;13935;55.672;37.764;2023-06-19T03:00:25;9.75;;;4.40;;
26191;SDS011;13935;55.672;37.764;2023-06-19T03:01:31;10.02;;;4.55;;
26191;SDS011;13935;55.672;37.764;2023-06-19T03:02:33;7.63;;;4.47;;
26191;SDS011;13935;55.672;37.764;2023-06-19T03:03:35;8.55;;;4.25;;
26191;SDS011;13935;55.672;37.764;2023-06-19T03:04:42;10.35;;;4.65;;
26191;SDS011;13935;55.672;37.764;2023-06-19T03:05:46;11.27;;;4.95;;
26191;SDS011;13935;55.672;37.764;2023-06-19T03:06:47;7.72;;;4.90;;
26191;SDS011;13935;55.672;37.764;2023-06-19T03:07:50;10.13;;;4.70;;
26191;SDS011;13935;55.672;37.764;2023-06-19T03:08:52;8.30;;;4.82;;
26191;SDS011;13935;55.672;37.764;2023-06-19T03:09:54;11.20;;;4.57;;
26191;SDS011;13935;55.672;37.764;2023-06-19T03:10:56;10.00;;;4.32;;
26191;SDS011;13935;55.672;37.764;2023-06-19T03:11:59;9.40;;;4.70;;
26191;SDS011;13935;55.672;37.764;2023-06-19T03:13:01;10.23;;;4.43;;
26191;SDS011;13935;55.672;37.764;2023-06-19T03:14:03;9.18;;;4.55;;
26191;SDS011;13935;55.672;37.764;2023-06-19T03:15:09;8.10;;;4.40;;
26191;SDS011;13935;55.672;37.764;2023-06-19T03:16:15;9.38;;;4.68;;
26191;SDS011;13935;55.672;37.764;2023-06-19T03:17:18;12.73;;;4.57;;
26191;SDS011;13935;55.672;37.764;2023-06-19T03:18:20;9.98;;;4.70;;
26191;SDS011;13935;55.672;37.764;2023-06-19T03:19:21;9.05;;;4.50;;
26191;SDS011;13935;55.672;37.764;2023-06-19T03:20:24;7.75;;;4.97;;
26191;SDS011;13935;55.672;37.764;2023-06-19T03:21:30;8.25;;;5.00;;
26191;SDS011;13935;55.672;37.764;2023-06-19T03:22:34;8.23;;;4.30;;
26191;SDS011;13935;55.672;37.764;2023-06-19T03:23:36;14.68;;;4.38;;
26191;SDS011;13935;55.672;37.764;2023-06-19T03:24:39;9.82;;;4.30;;
26191;SDS011;13935;55.672;37.764;2023-06-19T03:26:00;10.30;;;4.78;;
26191;SDS011;13935;55.672;37.764;2023-06-19T03:27:03;9.95;;;4.75;;
26191;SDS011;13935;55.672;37.764;2023-06-19T03:28:05;9.30;;;4.68;;
26191;SDS011;13935;55.672;37.764;2023-06-19T03:29:08;9.77;;;4.20;;
26191;SDS011;13935;55.672;37.764;2023-06-19T03:30:33;11.90;;;4.68;;
26191;SDS011;13935;55.672;37.764;2023-06-19T03:31:35;6.97;;;4.25;;
26191;SDS011;13935;55.672;37.764;2023-06-19T03:32:38;9.77;;;4.22;;
26191;SDS011;13935;55.672;37.764;2023-06-19T03:33:41;9.45;;;4.85;;
26191;SDS011;13935;55.672;37.764;2023-06-19T03:34:44;8.90;;;4.40;;
26191;SDS011;13935;55.672;37.764;2023-06-19T03:35:47;11.93;;;5.05;;
26191;SDS011;13935;55.672;37.764;2023-06-19T03:37:00;7.22;;;4.57;;
26191;SDS011;13935;55.672;37.764;2023-06-19T03:38:02;7.78;;;4.70;;
26191;SDS011;13935;55.672;37.764;2023-06-19T03:39:05;11.25;;;4.35;;
26191;SDS011;13935;55.672;37.764;2023-06-19T03:40:08;9.25;;;4.80;;
26191;SDS011;13935;55.672;37.764;2023-06-19T03:41:17;9.10;;;4.50;;
26191;SDS011;13935;55.672;37.764;2023-06-19T03:42:19;7.63;;;4.32;;
26191;SDS011;13935;55.672;37.764;2023-06-19T03:43:21;8.95;;;5.22;;
26191;SDS011;13935;55.672;37.764;2023-06-19T03:44:23;8.02;;;4.78;;
26191;SDS011;13935;55.672;37.764;2023-06-19T03:46:55;10.63;;;4.68;;
26191;SDS011;13935;55.672;37.764;2023-06-19T03:47:57;8.43;;;4.55;;
26191;SDS011;13935;55.672;37.764;2023-06-19T03:49:00;8.45;;;5.25;;
26191;SDS011;13935;55.672;37.764;2023-06-19T03:50:02;7.70;;;4.53;;
26191;SDS011;13935;55.672;37.764;2023-06-19T03:51:20;12.27;;;5.30;;
26191;SDS011;13935;55.672;37.764;2023-06-19T03:52:22;9.40;;;5.43;;
26191;SDS011;13935;55.672;37.764;2023-06-19T03:53:24;8.90;;;4.75;;
26191;SDS011;13935;55.672;37.764;2023-06-19T03:54:28;8.77;;;4.45;;
26191;SDS011;13935;55.672;37.764;2023-06-19T03:55:30;8.68;;;4.30;;
26191;SDS011;13935;55.672;37.764;2023-06-19T03:56:32;6.88;;;4.50;;
26191;SDS011;13935;55.672;37.764;2023-06-19T03:57:34;7.60;;;4.32;;
26191;SDS011;13935;55.672;37.764;2023-06-19T03:58:36;7.97;;;4.55;;
26191;SDS011;13935;55.672;37.764;2023-06-19T03:59:39;8.55;;;4.47;;
26191;SDS011;13935;55.672;37.764;2023-06-19T04:00:44;8.10;;;4.50;;
26191;SDS011;13935;55.672;37.764;2023-06-19T04:01:46;11.07;;;4.95;;
26191;SDS011;13935;55.672;37.764;2023-06-19T04:02:50;8.18;;;4.40;;
26191;SDS011;13935;55.672;37.764;2023-06-19T04:03:53;10.27;;;4.93;;
26191;SDS011;13935;55.672;37.764;2023-06-19T04:04:58;12.93;;;4.60;;
26191;SDS011;13935;55.672;37.764;2023-06-19T04:05:59;11.73;;;4.93;;
26191;SDS011;13935;55.672;37.764;2023-06-19T04:07:02;13.88;;;4.70;;
26191;SDS011;13935;55.672;37.764;2023-06-19T04:08:04;8.18;;;4.45;;
26191;SDS011;13935;55.672;37.764;2023-06-19T04:09:07;7.70;;;4.55;;
26191;SDS011;13935;55.672;37.764;2023-06-19T04:10:11;8.57;;;4.57;;
26191;SDS011;13935;55.672;37.764;2023-06-19T04:11:13;6.60;;;4.10;;
26191;SDS011;13935;55.672;37.764;2023-06-19T04:12:15;7.22;;;4.72;;
26191;SDS011;13935;55.672;37.764;2023-06-19T04:13:17;8.40;;;4.55;;
26191;SDS011;13935;55.672;37.764;2023-06-19T04:14:19;9.02;;;4.90;;
26191;SDS011;13935;55.672;37.764;2023-06-19T04:15:24;9.80;;;4.72;;
26191;SDS011;13935;55.672;37.764;2023-06-19T04:16:27;12.65;;;4.97;;
26191;SDS011;13935;55.672;37.764;2023-06-19T04:17:29;11.85;;;4.72;;
26191;SDS011;13935;55.672;37.764;2023-06-19T04:18:31;9.45;;;4.60;;
26191;SDS011;13935;55.672;37.764;2023-06-19T04:19:33;9.95;;;4.60;;
26191;SDS011;13935;55.672;37.764;2023-06-19T04:20:36;8.40;;;4.95;;
26191;SDS011;13935;55.672;37.764;2023-06-19T04:21:39;9.80;;;4.70;;
26191;SDS011;13935;55.672;37.764;2023-06-19T04:22:41;8.30;;;4.68;;
26191;SDS011;13935;55.672;37.764;2023-06-19T04:23:44;6.88;;;4.32;;
26191;SDS011;13935;55.672;37.764;2023-06-19T04:24:46;8.23;;;4.13;;
26191;SDS011;13935;55.672;37.764;2023-06-19T04:25:48;9.10;;;4.25;;
26191;SDS011;13935;55.672;37.764;2023-06-19T04:26:51;11.00;;;4.82;;
26191;SDS011;13935;55.672;37.764;2023-06-19T04:27:55;7.55;;;4.75;;
26191;SDS011;13935;55.672;37.764;2023-06-19T04:28:57;9.40;;;4.75;;
26191;SDS011;13935;55.672;37.764;2023-06-19T04:29:59;7.68;;;4.13;;
26191;SDS011;13935;55.672;37.764;2023-06-19T04:31:02;7.72;;;4.20;;
26191;SDS011;13935;55.672;37.764;2023-06-19T04:32:04;8.88;;;4.43;;
26191;SDS011;13935;55.672;37.764;2023-06-19T04:33:12;8.73;;;4.70;;
26191;SDS011;13935;55.672;37.764;2023-06-19T04:34:18;11.75;;;4.50;;
26191;SDS011;13935;55.672;37.764;2023-06-19T04:35:23;10.45;;;4.75;;
26191;SDS011;13935;55.672;37.764;2023-06-19T04:36:25;10.13;;;4.75;;
26191;SDS011;13935;55.672;37.764;2023-06-19T04:37:30;7.20;;;4.13;;
26191;SDS011;13935;55.672;37.764;2023-06-19T04:38:32;7.70;;;4.20;;
26191;SDS011;13935;55.672;37.764;2023-06-19T04:39:34;9.00;;;4.30;;
26191;SDS011;13935;55.672;37.764;2023-06-19T04:40:36;8.23;;;4.55;;
26191;SDS011;13935;55.672;37.764;2023-06-19T04:41:38;7.25;;;4.22;;
26191;SDS011;13935;55.672;37.764;2023-06-19T04:42:42;6.90;;;4.43;;
26191;SDS011;13935;55.672;37.764;2023-06-19T04:43:44;9.68;;;4.57;;
26191;SDS011;13935;55.672;37.764;2023-06-19T04:44:46;9.10;;;4.65;;
26191;SDS011;13935;55.672;37.764;2023-06-19T04:45:49;10.32;;;4.82;;
26191;SDS011;13935;55.672;37.764;2023-06-19T04:46:51;9.88;;;4.20;;
26191;SDS011;13935;55.672;37.764;2023-06-19T04:48:02;7.10;;;4.20;;
26191;SDS011;13935;55.672;37.764;2023-06-19T04:49:05;7.63;;;4.47;;
26191;SDS011;13935;55.672;37.764;2023-06-19T04:50:07;7.13;;;5.13;;
26191;SDS011;13935;55.672;37.764;2023-06-19T04:51:10;8.80;;;4.18;;
26191;SDS011;13935;55.672;37.764;2023-06-19T04:52:12;9.38;;;4.18;;
26191;SDS011;13935;55.672;37.764;2023-06-19T04:53:14;9.52;;;5.82;;
26191;SDS011;13935;55.672;37.764;2023-06-19T04:54:17;9.95;;;4.35;;
26191;SDS011;13935;55.672;37.764;2023-06-19T04:55:19;7.55;;;3.67;;
26191;SDS011;13935;55.672;37.764;2023-06-19T04:56:22;9.52;;;4.25;;
26191;SDS011;13935;55.672;37.764;2023-06-19T04:57:24;6.70;;;3.50;;
26191;SDS011;13935;55.672;37.764;2023-06-19T04:58:25;7.35;;;3.60;;
26191;SDS011;13935;55.672;37.764;2023-06-19T04:59:27;9.02;;;3.90;;
26191;SDS011;13935;55.672;37.764;2023-06-19T05:00:31;4.72;;;3.83;;
26191;SDS011;13935;55.672;37.764;2023-06-19T05:01:33;7.15;;;3.70;;
26191;SDS011;13935;55.672;37.764;2023-06-19T05:02:35;7.70;;;4.20;;
26191;SDS011;13935;55.672;37.764;2023-06-19T05:03:38;5.95;;;3.60;;
26191;SDS011;13935;55.672;37.764;2023-06-19T05:04:40;6.18;;;3.63;;
26191;SDS011;13935;55.672;37.764;2023-06-19T05:05:46;7.03;;;4.30;;
26191;SDS011;13935;55.672;37.764;2023-06-19T05:06:48;7.95;;;3.42;;
26191;SDS011;13935;55.672;37.764;2023-06-19T05:07:51;5.78;;;3.95;;
26191;SDS011;13935;55.672;37.764;2023-06-19T05:08:53;8.52;;;5.15;;
26191;SDS011;13935;55.672;37.764;2023-06-19T05:09:55;6.30;;;3.97;;
26191;SDS011;13935;55.672;37.764;2023-06-19T05:10:57;9.32;;;4.93;;
26191;SDS011;13935;55.672;37.764;2023-06-19T05:12:00;6.80;;;3.78;;
26191;SDS011;13935;55.672;37.764;2023-06-19T05:13:06;6.43;;;3.78;;
26191;SDS011;13935;55.672;37.764;2023-06-19T05:14:08;9.00;;;3.63;;
26191;SDS011;13935;55.672;37.764;2023-06-19T05:15:10;5.57;;;4.00;;
26191;SDS011;13935;55.672;37.764;2023-06-19T05:16:13;5.28;;;3.72;;
26191;SDS011;13935;55.672;37.764;2023-06-19T05:17:18;7.07;;;3.53;;
26191;SDS011;13935;55.672;37.764;2023-06-19T05:18:20;5.55;;;3.40;;
26191;SDS011;13935;55.672;37.764;2023-06-19T05:19:22;6.75;;;3.58;;
26191;SDS011;13935;55.672;37.764;2023-06-19T05:20:24;5.93;;;3.70;;
26191;SDS011;13935;55.672;37.764;2023-06-19T05:21:29;7.82;;;3.60;;
26191;SDS011;13935;55.672;37.764;2023-06-19T05:22:31;7.72;;;3.22;;
26191;SDS011;13935;55.672;37.764;2023-06-19T05:23:35;7.15;;;3.38;;
26191;SDS011;13935;55.672;37.764;2023-06-19T05:24:38;5.80;;;3.47;;
26191;SDS011;13935;55.672;37.764;2023-06-19T05:25:40;7.00;;;3.63;;
26191;SDS011;13935;55.672;37.764;2023-06-19T05:26:42;7.65;;;3.72;;
26191;SDS011;13935;55.672;37.764;2023-06-19T05:27:44;6.43;;;3.60;;
26191;SDS011;13935;55.672;37.764;2023-06-19T05:28:48;7.93;;;3.60;;
26191;SDS011;13935;55.672;37.764;2023-06-19T05:29:50;7.82;;;3.78;;
26191;SDS011;13935;55.672;37.764;2023-06-19T05:30:53;8.68;;;3.85;;
26191;SDS011;13935;55.672;37.764;2023-06-19T05:31:55;7.72;;;4.07;;
26191;SDS011;13935;55.672;37.764;2023-06-19T05:32:57;8.57;;;3.92;;
26191;SDS011;13935;55.672;37.764;2023-06-19T05:33:59;7.55;;;3.78;;
26191;SDS011;13935;55.672;37.764;2023-06-19T05:35:01;8.00;;;3.75;;
26191;SDS011;13935;55.672;37.764;2023-06-19T05:36:04;6.18;;;3.90;;
26191;SDS011;13935;55.672;37.764;2023-06-19T05:37:06;6.57;;;4.00;;
26191;SDS011;13935;55.672;37.764;2023-06-19T05:38:08;7.18;;;3.70;;
26191;SDS011;13935;55.672;37.764;2023-06-19T05:39:11;10.07;;;3.92;;
26191;SDS011;13935;55.672;37.764;2023-06-19T05:40:13;8.25;;;3.22;;
26191;SDS011;13935;55.672;37.764;2023-06-19T05:41:15;8.30;;;3.75;;
26191;SDS011;13935;55.672;37.764;2023-06-19T05:42:17;5.50;;;3.35;;
26191;SDS011;13935;55.672;37.764;2023-06-19T05:43:19;7.63;;;3.63;;
26191;SDS011;13935;55.672;37.764;2023-06-19T05:44:21;5.10;;;3.60;;
26191;SDS011;13935;55.672;37.764;2023-06-19T05:45:23;7.95;;;4.00;;
26191;SDS011;13935;55.672;37.764;2023-06-19T05:46:25;5.13;;;3.30;;
26191;SDS011;13935;55.672;37.764;2023-06-19T05:47:27;6.13;;;3.08;;
26191;SDS011;13935;55.672;37.764;2023-06-19T05:48:33;7.53;;;3.45;;
26191;SDS011;13935;55.672;37.764;2023-06-19T05:49:35;5.85;;;3.30;;
26191;SDS011;13935;55.672;37.764;2023-06-19T05:50:37;8.77;;;3.30;;
26191;SDS011;13935;55.672;37.764;2023-06-19T05:51:39;7.55;;;3.40;;
26191;SDS011;13935;55.672;37.764;2023-06-19T05:52:41;6.55;;;3.30;;
26191;SDS011;13935;55.672;37.764;2023-06-19T05:53:44;10.45;;;3.88;;
26191;SDS011;13935;55.672;37.764;2023-06-19T05:54:48;6.00;;;3.70;;
26191;SDS011;13935;55.672;37.764;2023-06-19T05:55:50;5.38;;;3.28;;
26191;SDS011;13935;55.672;37.764;2023-06-19T05:56:52;5.25;;;3.10;;
26191;SDS011;13935;55.672;37.764;2023-06-19T05:57:55;6.93;;;3.10;;
26191;SDS011;13935;55.672;37.764;2023-06-19T05:58:58;6.75;;;3.60;;
26191;SDS011;13935;55.672;37.764;2023-06-19T06:00:00;6.47;;;3.38;;
26191;SDS011;13935;55.672;37.764;2023-06-19T06:01:04;8.70;;;3.05;;
26191;SDS011;13935;55.672;37.764;2023-06-19T06:02:06;6.90;;;3.22;;
26191;SDS011;13935;55.672;37.764;2023-06-19T06:03:09;6.13;;;2.80;;
26191;SDS011;13935;55.672;37.764;2023-06-19T06:04:11;5.80;;;3.17;;
26191;SDS011;13935;55.672;37.764;2023-06-19T06:05:13;5.75;;;3.03;;
26191;SDS011;13935;55.672;37.764;2023-06-19T06:06:15;5.90;;;2.83;;
26191;SDS011;13935;55.672;37.764;2023-06-19T06:07:17;4.72;;;2.90;;
26191;SDS011;13935;55.672;37.764;2023-06-19T06:08:19;6.93;;;3.10;;
26191;SDS011;13935;55.672;37.764;2023-06-19T06:09:21;6.18;;;3.15;;
26191;SDS011;13935;55.672;37.764;2023-06-19T06:10:23;6.40;;;3.35;;
26191;SDS011;13935;55.672;37.764;2023-06-19T06:11:28;5.70;;;3.20;;
26191;SDS011;13935;55.672;37.764;2023-06-19T06:12:30;5.07;;;3.05;;
26191;SDS011;13935;55.672;37.764;2023-06-19T06:13:31;8.35;;;3.30;;
26191;SDS011;13935;55.672;37.764;2023-06-19T06:14:33;4.63;;;2.80;;
26191;SDS011;13935;55.672;37.764;2023-06-19T06:15:35;5.25;;;3.20;;
26191;SDS011;13935;55.672;37.764;2023-06-19T06:16:39;5.63;;;2.95;;